PWSweather.com
Personal Weather Stations
Station Observations
KMNMADEL2
Andys Live Weather Stations, Madelia, MN 56062

Andys Live Weather StationsMadelia, MN 56062

Lat: 44.04636, Lon: -94.4163437

Elevation: 1006

Station Type: Wireless Davis Instruments Vantage Pro2 Plus

http://www.madeliasliveweather.com/

Latest ConditionsUpdated 6:30:02 PM CST Monday, Mar 2, 2015
Currently Today's Max Today's Min Today's Average
Temperature 24.7°F-4.1°C 26.8°F-2.9°C 2.4°F-16.4°C 20.0°F-6.7°C
Dew Point 20.3°F-6.5°C 20.5°F-6.4°C -0.8°F-18.2°C 13.9°F-10.1°C
Winds 3.0 mph SE4.8 kmh SE 15.0 mph SE24.1 kmh SE - 3.1 mph 5.0 kmh
Wind Gusts 9.0 mph14.5 kmh 18.0 mph29.0 kmh - -
Humidity 83% 89% 65% 77%
Pressure 30.23 in1023.7 mb 30.56 in1034.9 mb 30.23 in1023.7 mb -
Hour Temp Dew Point Humidity Winds Wind Gusts Pressure Precip Precip Rate Daily Precip Total
06:30 PM 24.7°F-4.1°C 20.3°F-6.5°C 83% 3.0 mph SE4.8 kmh SE 9.0 mph14.5 kmh 30.23 in1023.7 mb 0.00 in0.0 mm 0.00 in/hr0.0 mm/hr 0.00 in0.0 mm
06:25 PM 24.7°F-4.1°C 20.0°F-6.7°C 82% 3.0 mph SE4.8 kmh SE 14.0 mph22.5 kmh 30.24 in1024.0 mb 0.00 in0.0 mm 0.00 in/hr0.0 mm/hr 0.00 in0.0 mm
06:20 PM 24.8°F-4.0°C 20.4°F-6.4°C 83% 1.0 mph SE1.6 kmh SE 13.0 mph20.9 kmh 30.23 in1023.7 mb 0.00 in0.0 mm 0.00 in/hr0.0 mm/hr 0.00 in0.0 mm
06:15 PM 24.8°F-4.0°C 20.1°F-6.6°C 82% 4.0 mph SE6.4 kmh SE 13.0 mph20.9 kmh 30.24 in1024.0 mb 0.00 in0.0 mm 0.00 in/hr0.0 mm/hr 0.00 in0.0 mm
06:10 PM 24.9°F-3.9°C 20.2°F-6.6°C 82% 5.0 mph SE8.0 kmh SE 11.0 mph17.7 kmh 30.24 in1024.0 mb 0.00 in0.0 mm 0.00 in/hr0.0 mm/hr 0.00 in0.0 mm
06:05 PM 24.9°F-3.9°C 20.2°F-6.6°C 82% 4.0 mph SE6.4 kmh SE 11.0 mph17.7 kmh 30.24 in1024.0 mb 0.00 in0.0 mm 0.00 in/hr0.0 mm/hr 0.00 in0.0 mm
06:00 PM 25.0°F-3.9°C 20.0°F-6.7°C 81% 3.0 mph SE4.8 kmh SE 7.0 mph11.3 kmh 30.24 in1024.0 mb 0.00 in0.0 mm 0.00 in/hr0.0 mm/hr 0.00 in0.0 mm
05:55 PM 25.1°F-3.8°C 20.1°F-6.6°C 81% 2.0 mph SSE3.2 kmh SSE 13.0 mph20.9 kmh 30.24 in1024.0 mb 0.00 in0.0 mm 0.00 in/hr0.0 mm/hr 0.00 in0.0 mm
05:50 PM 25.2°F-3.8°C 20.2°F-6.6°C 81% 2.0 mph SE3.2 kmh SE 11.0 mph17.7 kmh 30.25 in1024.4 mb 0.00 in0.0 mm 0.00 in/hr0.0 mm/hr 0.00 in0.0 mm
05:45 PM 25.2°F-3.8°C 20.5°F-6.4°C 82% 4.0 mph SE6.4 kmh SE 11.0 mph17.7 kmh 30.25 in1024.4 mb 0.00 in0.0 mm 0.00 in/hr0.0 mm/hr 0.00 in0.0 mm
05:40 PM 25.3°F-3.7°C 20.3°F-6.5°C 81% 7.0 mph SSE11.3 kmh SSE 11.0 mph17.7 kmh 30.25 in1024.4 mb 0.00 in0.0 mm 0.00 in/hr0.0 mm/hr 0.00 in0.0 mm
05:35 PM 25.2°F-3.8°C 20.2°F-6.6°C 81% 4.0 mph S6.4 kmh S 10.0 mph16.1 kmh 30.25 in1024.4 mb 0.00 in0.0 mm 0.00 in/hr0.0 mm/hr 0.00 in0.0 mm
05:30 PM 25.2°F-3.8°C 20.2°F-6.6°C 81% 8.0 mph S12.9 kmh S 10.0 mph16.1 kmh 30.25 in1024.4 mb 0.00 in0.0 mm 0.00 in/hr0.0 mm/hr 0.00 in0.0 mm
05:25 PM 25.3°F-3.7°C 20.3°F-6.5°C 81% 8.0 mph SE12.9 kmh SE 13.0 mph20.9 kmh 30.25 in1024.4 mb 0.00 in0.0 mm 0.00 in/hr0.0 mm/hr 0.00 in0.0 mm
05:20 PM 25.3°F-3.7°C 20.0°F-6.7°C 80% 7.0 mph SSE11.3 kmh SSE 13.0 mph20.9 kmh 30.26 in1024.7 mb 0.00 in0.0 mm 0.00 in/hr0.0 mm/hr 0.00 in0.0 mm
05:15 PM 25.4°F-3.7°C 20.1°F-6.6°C 80% 7.0 mph SE11.3 kmh SE 12.0 mph19.3 kmh 30.26 in1024.7 mb 0.00 in0.0 mm 0.00 in/hr0.0 mm/hr 0.00 in0.0 mm
05:10 PM 25.4°F-3.7°C 19.8°F-6.8°C 79% 4.0 mph SSE6.4 kmh SSE 12.0 mph19.3 kmh 30.26 in1024.7 mb 0.00 in0.0 mm 0.00 in/hr0.0 mm/hr 0.00 in0.0 mm
05:05 PM 25.5°F-3.6°C 19.9°F-6.7°C 79% 7.0 mph SE11.3 kmh SE 12.0 mph19.3 kmh 30.26 in1024.7 mb 0.00 in0.0 mm 0.00 in/hr0.0 mm/hr 0.00 in0.0 mm
05:00 PM 25.5°F-3.6°C 19.9°F-6.7°C 79% 3.0 mph SE4.8 kmh SE 6.0 mph9.7 kmh 30.26 in1024.7 mb 0.00 in0.0 mm 0.00 in/hr0.0 mm/hr 0.00 in0.0 mm
04:55 PM 25.4°F-3.7°C 19.5°F-6.9°C 78% 5.0 mph SSE8.0 kmh SSE 16.0 mph25.7 kmh 30.27 in1025.1 mb 0.00 in0.0 mm 0.00 in/hr0.0 mm/hr 0.00 in0.0 mm
04:50 PM 25.4°F-3.7°C 19.5°F-6.9°C 78% 10.0 mph SSE16.1 kmh SSE 16.0 mph25.7 kmh 30.27 in1025.1 mb 0.00 in0.0 mm 0.00 in/hr0.0 mm/hr 0.00 in0.0 mm
04:45 PM 25.4°F-3.7°C 19.5°F-6.9°C 78% 11.0 mph SSE17.7 kmh SSE 16.0 mph25.7 kmh 30.28 in1025.4 mb 0.00 in0.0 mm 0.00 in/hr0.0 mm/hr 0.00 in0.0 mm
04:40 PM 25.4°F-3.7°C 19.2°F-7.1°C 77% 6.0 mph SE9.7 kmh SE 16.0 mph25.7 kmh 30.28 in1025.4 mb 0.00 in0.0 mm 0.00 in/hr0.0 mm/hr 0.00 in0.0 mm
04:35 PM 25.4°F-3.7°C 19.5°F-6.9°C 78% 15.0 mph SE24.1 kmh SE 15.0 mph24.1 kmh 30.29 in1025.7 mb 0.00 in0.0 mm 0.00 in/hr0.0 mm/hr 0.00 in0.0 mm
04:30 PM 25.3°F-3.7°C 18.8°F-7.3°C 76% 4.0 mph SE6.4 kmh SE 11.0 mph17.7 kmh 30.29 in1025.7 mb 0.00 in0.0 mm 0.00 in/hr0.0 mm/hr 0.00 in0.0 mm
04:25 PM 25.4°F-3.7°C 18.9°F-7.3°C 76% 2.0 mph ESE3.2 kmh ESE 16.0 mph25.7 kmh 30.30 in1026.1 mb 0.00 in0.0 mm 0.00 in/hr0.0 mm/hr 0.00 in0.0 mm
04:20 PM 25.5°F-3.6°C 19.0°F-7.2°C 76% 5.0 mph SE8.0 kmh SE 16.0 mph25.7 kmh 30.30 in1026.1 mb 0.00 in0.0 mm 0.00 in/hr0.0 mm/hr 0.00 in0.0 mm
04:15 PM 25.5°F-3.6°C 19.0°F-7.2°C 76% 4.0 mph SE6.4 kmh SE 16.0 mph25.7 kmh 30.30 in1026.1 mb 0.00 in0.0 mm 0.00 in/hr0.0 mm/hr 0.00 in0.0 mm
04:10 PM 25.4°F-3.7°C 18.6°F-7.4°C 75% 3.0 mph SE4.8 kmh SE 16.0 mph25.7 kmh 30.31 in1026.4 mb 0.00 in0.0 mm 0.00 in/hr0.0 mm/hr 0.00 in0.0 mm
04:05 PM 25.4°F-3.7°C 18.3°F-7.6°C 74% 6.0 mph SE9.7 kmh SE 16.0 mph25.7 kmh 30.31 in1026.4 mb 0.00 in0.0 mm 0.00 in/hr0.0 mm/hr 0.00 in0.0 mm
04:00 PM 25.4°F-3.7°C 18.3°F-7.6°C 74% 5.0 mph SE8.0 kmh SE 6.0 mph9.7 kmh 30.32 in1026.8 mb 0.00 in0.0 mm 0.00 in/hr0.0 mm/hr 0.00 in0.0 mm
03:55 PM 25.4°F-3.7°C 18.6°F-7.4°C 75% 6.0 mph SE9.7 kmh SE 17.0 mph27.4 kmh 30.32 in1026.8 mb 0.00 in0.0 mm 0.00 in/hr0.0 mm/hr 0.00 in0.0 mm
03:50 PM 25.4°F-3.7°C 18.6°F-7.4°C 75% 9.0 mph SE14.5 kmh SE 17.0 mph27.4 kmh 30.32 in1026.8 mb 0.00 in0.0 mm 0.00 in/hr0.0 mm/hr 0.00 in0.0 mm
03:45 PM 25.5°F-3.6°C 18.4°F-7.6°C 74% 7.0 mph SSE11.3 kmh SSE 17.0 mph27.4 kmh 30.32 in1026.8 mb 0.00 in0.0 mm 0.00 in/hr0.0 mm/hr 0.00 in0.0 mm
03:40 PM 25.9°F-3.4°C 18.8°F-7.3°C 74% 7.0 mph SSE11.3 kmh SSE 13.0 mph20.9 kmh 30.32 in1026.8 mb 0.00 in0.0 mm 0.00 in/hr0.0 mm/hr 0.00 in0.0 mm
03:35 PM 26.1°F-3.3°C 19.0°F-7.2°C 74% 5.0 mph SE8.0 kmh SE 11.0 mph17.7 kmh 30.33 in1027.1 mb 0.00 in0.0 mm 0.00 in/hr0.0 mm/hr 0.00 in0.0 mm
03:30 PM 26.1°F-3.3°C 18.6°F-7.4°C 73% 7.0 mph SE11.3 kmh SE 10.0 mph16.1 kmh 30.33 in1027.1 mb 0.00 in0.0 mm 0.00 in/hr0.0 mm/hr 0.00 in0.0 mm
03:25 PM 26.2°F-3.2°C 19.1°F-7.2°C 74% 5.0 mph ESE8.0 kmh ESE 14.0 mph22.5 kmh 30.34 in1027.4 mb 0.00 in0.0 mm 0.00 in/hr0.0 mm/hr 0.00 in0.0 mm
03:20 PM 26.2°F-3.2°C 18.7°F-7.4°C 73% 8.0 mph SE12.9 kmh SE 14.0 mph22.5 kmh 30.34 in1027.4 mb 0.00 in0.0 mm 0.00 in/hr0.0 mm/hr 0.00 in0.0 mm
03:15 PM 26.2°F-3.2°C 18.7°F-7.4°C 73% 3.0 mph S4.8 kmh S 14.0 mph22.5 kmh 30.34 in1027.4 mb 0.00 in0.0 mm 0.00 in/hr0.0 mm/hr 0.00 in0.0 mm
03:10 PM 26.3°F-3.2°C 18.5°F-7.5°C 72% 8.0 mph SE12.9 kmh SE 13.0 mph20.9 kmh 30.34 in1027.4 mb 0.00 in0.0 mm 0.00 in/hr0.0 mm/hr 0.00 in0.0 mm
03:05 PM 26.3°F-3.2°C 18.2°F-7.7°C 71% 3.0 mph S4.8 kmh S 13.0 mph20.9 kmh 30.35 in1027.8 mb 0.00 in0.0 mm 0.00 in/hr0.0 mm/hr 0.00 in0.0 mm
03:00 PM 26.3°F-3.2°C 18.2°F-7.7°C 71% 6.0 mph SSE9.7 kmh SSE 9.0 mph14.5 kmh 30.35 in1027.8 mb 0.00 in0.0 mm 0.00 in/hr0.0 mm/hr 0.00 in0.0 mm
02:55 PM 26.4°F-3.1°C 18.0°F-7.8°C 70% 5.0 mph SE8.0 kmh SE 16.0 mph25.7 kmh 30.35 in1027.8 mb 0.00 in0.0 mm 0.00 in/hr0.0 mm/hr 0.00 in0.0 mm
02:50 PM 26.5°F-3.1°C 17.7°F-7.9°C 69% Calm Calm 16.0 mph25.7 kmh 30.35 in1027.8 mb 0.00 in0.0 mm 0.00 in/hr0.0 mm/hr 0.00 in0.0 mm
02:45 PM 26.7°F-2.9°C 18.3°F-7.6°C 70% 6.0 mph SE9.7 kmh SE 13.0 mph20.9 kmh 30.35 in1027.8 mb 0.00 in0.0 mm 0.00 in/hr0.0 mm/hr 0.00 in0.0 mm
02:40 PM 26.7°F-2.9°C 17.9°F-7.8°C 69% 6.0 mph SSW9.7 kmh SSW 13.0 mph20.9 kmh 30.35 in1027.8 mb 0.00 in0.0 mm 0.00 in/hr0.0 mm/hr 0.00 in0.0 mm
02:35 PM 26.8°F-2.9°C 18.0°F-7.8°C 69% 3.0 mph ESE4.8 kmh ESE 13.0 mph20.9 kmh 30.35 in1027.8 mb 0.00 in0.0 mm 0.00 in/hr0.0 mm/hr 0.00 in0.0 mm
02:30 PM 26.8°F-2.9°C 18.0°F-7.8°C 69% 7.0 mph SE11.3 kmh SE 11.0 mph17.7 kmh 30.36 in1028.1 mb 0.00 in0.0 mm 0.00 in/hr0.0 mm/hr 0.00 in0.0 mm
02:25 PM 26.5°F-3.1°C 17.0°F-8.3°C 67% 1.0 mph SE1.6 kmh SE 15.0 mph24.1 kmh 30.37 in1028.4 mb 0.00 in0.0 mm 0.00 in/hr0.0 mm/hr 0.00 in0.0 mm
02:20 PM 26.6°F-3.0°C 17.5°F-8.1°C 68% 3.0 mph SSE4.8 kmh SSE 15.0 mph24.1 kmh 30.37 in1028.4 mb 0.00 in0.0 mm 0.00 in/hr0.0 mm/hr 0.00 in0.0 mm
02:15 PM 26.6°F-3.0°C 16.8°F-8.4°C 66% 4.0 mph S6.4 kmh S 12.0 mph19.3 kmh 30.37 in1028.4 mb 0.00 in0.0 mm 0.00 in/hr0.0 mm/hr 0.00 in0.0 mm
02:10 PM 26.6°F-3.0°C 17.1°F-8.3°C 67% 7.0 mph SSE11.3 kmh SSE 12.0 mph19.3 kmh 30.37 in1028.4 mb 0.00 in0.0 mm 0.00 in/hr0.0 mm/hr 0.00 in0.0 mm
02:05 PM 26.4°F-3.1°C 16.6°F-8.6°C 66% 4.0 mph SSE6.4 kmh SSE 11.0 mph17.7 kmh 30.38 in1028.8 mb 0.00 in0.0 mm 0.00 in/hr0.0 mm/hr 0.00 in0.0 mm
02:00 PM 26.2°F-3.2°C 17.1°F-8.3°C 68% 1.0 mph SSE1.6 kmh SSE 6.0 mph9.7 kmh 30.39 in1029.1 mb 0.00 in0.0 mm 0.00 in/hr0.0 mm/hr 0.00 in0.0 mm
01:55 PM 26.0°F-3.3°C 16.9°F-8.4°C 68% 3.0 mph SE4.8 kmh SE 11.0 mph17.7 kmh 30.39 in1029.1 mb 0.00 in0.0 mm 0.00 in/hr0.0 mm/hr 0.00 in0.0 mm
01:50 PM 25.8°F-3.4°C 16.7°F-8.5°C 68% 7.0 mph SSW11.3 kmh SSW 11.0 mph17.7 kmh 30.39 in1029.1 mb 0.00 in0.0 mm 0.00 in/hr0.0 mm/hr 0.00 in0.0 mm
01:45 PM 25.6°F-3.6°C 17.2°F-8.2°C 70% 6.0 mph S9.7 kmh S 11.0 mph17.7 kmh 30.39 in1029.1 mb 0.00 in0.0 mm 0.00 in/hr0.0 mm/hr 0.00 in0.0 mm
01:40 PM 25.5°F-3.6°C 16.1°F-8.8°C 67% 5.0 mph SSE8.0 kmh SSE 11.0 mph17.7 kmh 30.40 in1029.5 mb 0.00 in0.0 mm 0.00 in/hr0.0 mm/hr 0.00 in0.0 mm
01:35 PM 25.5°F-3.6°C 15.7°F-9.1°C 66% 1.0 mph S1.6 kmh S 11.0 mph17.7 kmh 30.41 in1029.8 mb 0.00 in0.0 mm 0.00 in/hr0.0 mm/hr 0.00 in0.0 mm
01:30 PM 25.5°F-3.6°C 16.1°F-8.8°C 67% 4.0 mph SSE6.4 kmh SSE 10.0 mph16.1 kmh 30.41 in1029.8 mb 0.00 in0.0 mm 0.00 in/hr0.0 mm/hr 0.00 in0.0 mm
01:25 PM 25.7°F-3.5°C 15.9°F-8.9°C 66% 3.0 mph SE4.8 kmh SE 13.0 mph20.9 kmh 30.42 in1030.1 mb 0.00 in0.0 mm 0.00 in/hr0.0 mm/hr 0.00 in0.0 mm
01:20 PM 25.8°F-3.4°C 16.0°F-8.9°C 66% 5.0 mph S8.0 kmh S 12.0 mph19.3 kmh 30.42 in1030.1 mb 0.00 in0.0 mm 0.00 in/hr0.0 mm/hr 0.00 in0.0 mm
01:15 PM 25.9°F-3.4°C 16.1°F-8.8°C 66% 4.0 mph S6.4 kmh S 12.0 mph19.3 kmh 30.43 in1030.5 mb 0.00 in0.0 mm 0.00 in/hr0.0 mm/hr 0.00 in0.0 mm
01:10 PM 25.6°F-3.6°C 15.5°F-9.2°C 65% 3.0 mph SSE4.8 kmh SSE 12.0 mph19.3 kmh 30.44 in1030.8 mb 0.00 in0.0 mm 0.00 in/hr0.0 mm/hr 0.00 in0.0 mm
01:05 PM 25.5°F-3.6°C 16.1°F-8.8°C 67% 2.0 mph SSE3.2 kmh SSE 12.0 mph19.3 kmh 30.45 in1031.2 mb 0.00 in0.0 mm 0.00 in/hr0.0 mm/hr 0.00 in0.0 mm
01:00 PM 25.4°F-3.7°C 16.0°F-8.9°C 67% 5.0 mph S8.0 kmh S 12.0 mph19.3 kmh 30.45 in1031.2 mb 0.00 in0.0 mm 0.00 in/hr0.0 mm/hr 0.00 in0.0 mm
12:55 PM 25.5°F-3.6°C 16.1°F-8.8°C 67% 7.0 mph SSW11.3 kmh SSW 15.0 mph24.1 kmh 30.45 in1031.2 mb 0.00 in0.0 mm 0.00 in/hr0.0 mm/hr 0.00 in0.0 mm
12:50 PM 25.3°F-3.7°C 15.9°F-8.9°C 67% 8.0 mph SSE12.9 kmh SSE 13.0 mph20.9 kmh 30.46 in1031.5 mb 0.00 in0.0 mm 0.00 in/hr0.0 mm/hr 0.00 in0.0 mm
12:45 PM 25.3°F-3.7°C 15.6°F-9.1°C 66% 8.0 mph S12.9 kmh S 13.0 mph20.9 kmh 30.46 in1031.5 mb 0.00 in0.0 mm 0.00 in/hr0.0 mm/hr 0.00 in0.0 mm
12:40 PM 25.2°F-3.8°C 16.1°F-8.8°C 68% 5.0 mph SSW8.0 kmh SSW 13.0 mph20.9 kmh 30.47 in1031.8 mb 0.00 in0.0 mm 0.00 in/hr0.0 mm/hr 0.00 in0.0 mm
12:35 PM 25.1°F-3.8°C 15.0°F-9.4°C 65% 5.0 mph S8.0 kmh S 13.0 mph20.9 kmh 30.47 in1031.8 mb 0.00 in0.0 mm 0.00 in/hr0.0 mm/hr 0.00 in0.0 mm
12:30 PM 25.4°F-3.7°C 15.6°F-9.1°C 66% 6.0 mph S9.7 kmh S 11.0 mph17.7 kmh 30.48 in1032.2 mb 0.00 in0.0 mm 0.00 in/hr0.0 mm/hr 0.00 in0.0 mm
12:25 PM 25.5°F-3.6°C 15.7°F-9.1°C 66% 6.0 mph SSW9.7 kmh SSW 12.0 mph19.3 kmh 30.48 in1032.2 mb 0.00 in0.0 mm 0.00 in/hr0.0 mm/hr 0.00 in0.0 mm
12:20 PM 25.5°F-3.6°C 16.1°F-8.8°C 67% 4.0 mph SSE6.4 kmh SSE 12.0 mph19.3 kmh 30.48 in1032.2 mb 0.00 in0.0 mm 0.00 in/hr0.0 mm/hr 0.00 in0.0 mm
12:15 PM 25.3°F-3.7°C 16.2°F-8.8°C 68% 7.0 mph SSE11.3 kmh SSE 12.0 mph19.3 kmh 30.48 in1032.2 mb 0.00 in0.0 mm 0.00 in/hr0.0 mm/hr 0.00 in0.0 mm
12:10 PM 24.9°F-3.9°C 15.9°F-8.9°C 68% 5.0 mph S8.0 kmh S 12.0 mph19.3 kmh 30.49 in1032.5 mb 0.00 in0.0 mm 0.00 in/hr0.0 mm/hr 0.00 in0.0 mm
12:05 PM 24.6°F-4.1°C 14.5°F-9.7°C 65% 6.0 mph SSW9.7 kmh SSW 12.0 mph19.3 kmh 30.50 in1032.8 mb 0.00 in0.0 mm 0.00 in/hr0.0 mm/hr 0.00 in0.0 mm
12:00 PM 24.7°F-4.1°C 14.6°F-9.7°C 65% 5.0 mph S8.0 kmh S 12.0 mph19.3 kmh 30.50 in1032.8 mb 0.00 in0.0 mm 0.00 in/hr0.0 mm/hr 0.00 in0.0 mm
11:55 AM 24.8°F-4.0°C 15.8°F-9.0°C 68% 4.0 mph S6.4 kmh S 18.0 mph29.0 kmh 30.51 in1033.2 mb 0.00 in0.0 mm 0.00 in/hr0.0 mm/hr 0.00 in0.0 mm
11:50 AM 24.8°F-4.0°C 15.4°F-9.2°C 67% 9.0 mph SSE14.5 kmh SSE 18.0 mph29.0 kmh 30.51 in1033.2 mb 0.00 in0.0 mm 0.00 in/hr0.0 mm/hr 0.00 in0.0 mm
11:45 AM 24.6°F-4.1°C 14.9°F-9.5°C 66% 5.0 mph S8.0 kmh S 12.0 mph19.3 kmh 30.51 in1033.2 mb 0.00 in0.0 mm 0.00 in/hr0.0 mm/hr 0.00 in0.0 mm
11:40 AM 24.4°F-4.2°C 15.0°F-9.4°C 67% 8.0 mph S12.9 kmh S 11.0 mph17.7 kmh 30.52 in1033.5 mb 0.00 in0.0 mm 0.00 in/hr0.0 mm/hr 0.00 in0.0 mm
11:35 AM 24.2°F-4.3°C 15.2°F-9.3°C 68% 8.0 mph S12.9 kmh S 11.0 mph17.7 kmh 30.51 in1033.2 mb 0.00 in0.0 mm 0.00 in/hr0.0 mm/hr 0.00 in0.0 mm
11:30 AM 23.8°F-4.6°C 14.8°F-9.6°C 68% 4.0 mph S6.4 kmh S 9.0 mph14.5 kmh 30.52 in1033.5 mb 0.00 in0.0 mm 0.00 in/hr0.0 mm/hr 0.00 in0.0 mm
11:25 AM 23.6°F-4.7°C 14.3°F-9.8°C 67% 5.0 mph S8.0 kmh S 12.0 mph19.3 kmh 30.52 in1033.5 mb 0.00 in0.0 mm 0.00 in/hr0.0 mm/hr 0.00 in0.0 mm
11:20 AM 23.4°F-4.8°C 15.1°F-9.4°C 70% 6.0 mph S9.7 kmh S 12.0 mph19.3 kmh 30.53 in1033.9 mb 0.00 in0.0 mm 0.00 in/hr0.0 mm/hr 0.00 in0.0 mm
11:15 AM 23.4°F-4.8°C 14.8°F-9.6°C 69% 4.0 mph SSE6.4 kmh SSE 12.0 mph19.3 kmh 30.53 in1033.9 mb 0.00 in0.0 mm 0.00 in/hr0.0 mm/hr 0.00 in0.0 mm
11:10 AM 23.2°F-4.9°C 14.9°F-9.5°C 70% 5.0 mph SSW8.0 kmh SSW 12.0 mph19.3 kmh 30.53 in1033.9 mb 0.00 in0.0 mm 0.00 in/hr0.0 mm/hr 0.00 in0.0 mm
11:05 AM 23.6°F-4.7°C 13.6°F-10.2°C 65% 4.0 mph S6.4 kmh S 11.0 mph17.7 kmh 30.53 in1033.9 mb 0.00 in0.0 mm 0.00 in/hr0.0 mm/hr 0.00 in0.0 mm
11:00 AM 24.1°F-4.4°C 14.1°F-9.9°C 65% 8.0 mph SE12.9 kmh SE 9.0 mph14.5 kmh 30.53 in1033.9 mb 0.00 in0.0 mm 0.00 in/hr0.0 mm/hr 0.00 in0.0 mm
10:55 AM 24.1°F-4.4°C 15.1°F-9.4°C 68% 2.0 mph SSE3.2 kmh SSE 12.0 mph19.3 kmh 30.53 in1033.9 mb 0.00 in0.0 mm 0.00 in/hr0.0 mm/hr 0.00 in0.0 mm
10:50 AM 24.0°F-4.4°C 15.0°F-9.4°C 68% 5.0 mph SE8.0 kmh SE 12.0 mph19.3 kmh 30.53 in1033.9 mb 0.00 in0.0 mm 0.00 in/hr0.0 mm/hr 0.00 in0.0 mm
10:45 AM 24.1°F-4.4°C 15.8°F-9.0°C 70% 4.0 mph SSE6.4 kmh SSE 10.0 mph16.1 kmh 30.53 in1033.9 mb 0.00 in0.0 mm 0.00 in/hr0.0 mm/hr 0.00 in0.0 mm
10:40 AM 24.0°F-4.4°C 15.7°F-9.1°C 70% 6.0 mph SE9.7 kmh SE 10.0 mph16.1 kmh 30.53 in1033.9 mb 0.00 in0.0 mm 0.00 in/hr0.0 mm/hr 0.00 in0.0 mm
10:35 AM 23.8°F-4.6°C 15.1°F-9.4°C 69% 4.0 mph ESE6.4 kmh ESE 10.0 mph16.1 kmh 30.53 in1033.9 mb 0.00 in0.0 mm 0.00 in/hr0.0 mm/hr 0.00 in0.0 mm
10:30 AM 23.9°F-4.5°C 15.9°F-8.9°C 71% 3.0 mph S4.8 kmh S 8.0 mph12.9 kmh 30.53 in1033.9 mb 0.00 in0.0 mm 0.00 in/hr0.0 mm/hr 0.00 in0.0 mm
10:25 AM 23.2°F-4.9°C 15.2°F-9.3°C 71% Calm Calm 8.0 mph12.9 kmh 30.53 in1033.9 mb 0.00 in0.0 mm 0.00 in/hr0.0 mm/hr 0.00 in0.0 mm
10:20 AM 22.8°F-5.1°C 15.5°F-9.2°C 73% 5.0 mph SSE8.0 kmh SSE 8.0 mph12.9 kmh 30.54 in1034.2 mb 0.00 in0.0 mm 0.00 in/hr0.0 mm/hr 0.00 in0.0 mm
10:15 AM 22.4°F-5.3°C 15.4°F-9.2°C 74% Calm Calm 8.0 mph12.9 kmh 30.54 in1034.2 mb 0.00 in0.0 mm 0.00 in/hr0.0 mm/hr 0.00 in0.0 mm
10:10 AM 22.1°F-5.5°C 15.1°F-9.4°C 74% 6.0 mph S9.7 kmh S 8.0 mph12.9 kmh 30.54 in1034.2 mb 0.00 in0.0 mm 0.00 in/hr0.0 mm/hr 0.00 in0.0 mm
10:05 AM 22.1°F-5.5°C 14.8°F-9.6°C 73% 4.0 mph S6.4 kmh S 8.0 mph12.9 kmh 30.55 in1034.5 mb 0.00 in0.0 mm 0.00 in/hr0.0 mm/hr 0.00 in0.0 mm
10:00 AM 22.2°F-5.4°C 15.5°F-9.2°C 75% Calm Calm 6.0 mph9.7 kmh 30.55 in1034.5 mb 0.00 in0.0 mm 0.00 in/hr0.0 mm/hr 0.00 in0.0 mm
09:55 AM 21.5°F-5.8°C 14.8°F-9.6°C 75% Calm Calm 6.0 mph9.7 kmh 30.56 in1034.9 mb 0.00 in0.0 mm 0.00 in/hr0.0 mm/hr 0.00 in0.0 mm
09:50 AM 21.2°F-6.0°C 14.8°F-9.6°C 76% 1.0 mph S1.6 kmh S 6.0 mph9.7 kmh 30.55 in1034.5 mb 0.00 in0.0 mm 0.00 in/hr0.0 mm/hr 0.00 in0.0 mm
09:45 AM 20.6°F-6.3°C 14.8°F-9.6°C 78% Calm Calm 4.0 mph6.4 kmh 30.55 in1034.5 mb 0.00 in0.0 mm 0.00 in/hr0.0 mm/hr 0.00 in0.0 mm
09:40 AM 19.8°F-6.8°C 14.1°F-9.9°C 78% Calm Calm 2.0 mph3.2 kmh 30.55 in1034.5 mb 0.00 in0.0 mm 0.00 in/hr0.0 mm/hr 0.00 in0.0 mm
09:35 AM 18.9°F-7.3°C 13.5°F-10.3°C 79% Calm Calm 1.0 mph1.6 kmh 30.56 in1034.9 mb 0.00 in0.0 mm 0.00 in/hr0.0 mm/hr 0.00 in0.0 mm
09:30 AM 17.8°F-7.9°C 12.4°F-10.9°C 79% 1.0 mph W1.6 kmh W 1.0 mph1.6 kmh 30.56 in1034.9 mb 0.00 in0.0 mm 0.00 in/hr0.0 mm/hr 0.00 in0.0 mm
09:25 AM 16.9°F-8.4°C 11.5°F-11.4°C 79% Calm Calm 3.0 mph4.8 kmh 30.56 in1034.9 mb 0.00 in0.0 mm 0.00 in/hr0.0 mm/hr 0.00 in0.0 mm
09:20 AM 16.4°F-8.7°C 11.3°F-11.5°C 80% Calm Calm 3.0 mph4.8 kmh 30.56 in1034.9 mb 0.00 in0.0 mm 0.00 in/hr0.0 mm/hr 0.00 in0.0 mm
09:15 AM 15.9°F-8.9°C 10.8°F-11.8°C 80% Calm Calm 3.0 mph4.8 kmh 30.56 in1034.9 mb 0.00 in0.0 mm 0.00 in/hr0.0 mm/hr 0.00 in0.0 mm
09:10 AM 15.5°F-9.2°C 10.4°F-12.0°C 80% Calm Calm 3.0 mph4.8 kmh 30.56 in1034.9 mb 0.00 in0.0 mm 0.00 in/hr0.0 mm/hr 0.00 in0.0 mm
09:05 AM 15.4°F-9.2°C 10.9°F-11.7°C 82% 1.0 mph W1.6 kmh W 3.0 mph4.8 kmh 30.56 in1034.9 mb 0.00 in0.0 mm 0.00 in/hr0.0 mm/hr 0.00 in0.0 mm
09:00 AM 15.0°F-9.4°C 11.1°F-11.6°C 84% Calm Calm -- 30.55 in1034.5 mb 0.00 in0.0 mm 0.00 in/hr0.0 mm/hr 0.00 in0.0 mm
08:55 AM 14.3°F-9.8°C 10.6°F-11.9°C 85% Calm Calm 1.0 mph1.6 kmh 30.55 in1034.5 mb 0.00 in0.0 mm 0.00 in/hr0.0 mm/hr 0.00 in0.0 mm
08:50 AM 13.6°F-10.2°C 9.9°F-12.3°C 85% Calm Calm 1.0 mph1.6 kmh 30.56 in1034.9 mb 0.00 in0.0 mm 0.00 in/hr0.0 mm/hr 0.00 in0.0 mm
08:45 AM 13.2°F-10.4°C 9.8°F-12.3°C 86% Calm Calm 1.0 mph1.6 kmh 30.56 in1034.9 mb 0.00 in0.0 mm 0.00 in/hr0.0 mm/hr 0.00 in0.0 mm
08:40 AM 12.8°F-10.7°C 9.7°F-12.4°C 87% Calm Calm -- 30.56 in1034.9 mb 0.00 in0.0 mm 0.00 in/hr0.0 mm/hr 0.00 in0.0 mm
08:35 AM 12.5°F-10.8°C 9.6°F-12.4°C 88% Calm Calm -- 30.55 in1034.5 mb 0.00 in0.0 mm 0.00 in/hr0.0 mm/hr 0.00 in0.0 mm
08:30 AM 12.2°F-11.0°C 9.6°F-12.4°C 89% Calm Calm -- 30.55 in1034.5 mb 0.00 in0.0 mm 0.00 in/hr0.0 mm/hr 0.00 in0.0 mm
08:25 AM 11.4°F-11.4°C 8.8°F-12.9°C 89% Calm Calm -- 30.55 in1034.5 mb 0.00 in0.0 mm 0.00 in/hr0.0 mm/hr 0.00 in0.0 mm
08:20 AM 10.5°F-11.9°C 7.9°F-13.4°C 89% Calm Calm -- 30.55 in1034.5 mb 0.00 in0.0 mm 0.00 in/hr0.0 mm/hr 0.00 in0.0 mm
08:15 AM 9.3°F-12.6°C 6.7°F-14.1°C 89% Calm Calm -- 30.55 in1034.5 mb 0.00 in0.0 mm 0.00 in/hr0.0 mm/hr 0.00 in0.0 mm
08:10 AM 8.6°F-13.0°C 6.0°F-14.4°C 89% Calm Calm -- 30.55 in1034.5 mb 0.00 in0.0 mm 0.00 in/hr0.0 mm/hr 0.00 in0.0 mm
08:05 AM 7.5°F-13.6°C 4.9°F-15.1°C 89% Calm Calm -- 30.54 in1034.2 mb 0.00 in0.0 mm 0.00 in/hr0.0 mm/hr 0.00 in0.0 mm
08:00 AM 6.6°F-14.1°C 3.8°F-15.7°C 88% Calm Calm -- 30.54 in1034.2 mb 0.00 in0.0 mm 0.00 in/hr0.0 mm/hr 0.00 in0.0 mm
07:55 AM 5.5°F-14.7°C 2.7°F-16.3°C 88% Calm Calm -- 30.54 in1034.2 mb 0.00 in0.0 mm 0.00 in/hr0.0 mm/hr 0.00 in0.0 mm
07:50 AM 4.7°F-15.2°C 1.9°F-16.7°C 88% Calm Calm -- 30.53 in1033.9 mb 0.00 in0.0 mm 0.00 in/hr0.0 mm/hr 0.00 in0.0 mm
07:45 AM 4.1°F-15.5°C 1.1°F-17.2°C 87% Calm Calm -- 30.54 in1034.2 mb 0.00 in0.0 mm 0.00 in/hr0.0 mm/hr 0.00 in0.0 mm
07:40 AM 3.5°F-15.8°C 0.5°F-17.5°C 87% Calm Calm -- 30.54 in1034.2 mb 0.00 in0.0 mm 0.00 in/hr0.0 mm/hr 0.00 in0.0 mm
07:35 AM 3.0°F-16.1°C 0.0°F-17.8°C 87% Calm Calm -- 30.53 in1033.9 mb 0.00 in0.0 mm 0.00 in/hr0.0 mm/hr 0.00 in0.0 mm
07:30 AM 2.6°F-16.3°C -0.6°F-18.1°C 86% Calm Calm -- 30.53 in1033.9 mb 0.00 in0.0 mm 0.00 in/hr0.0 mm/hr 0.00 in0.0 mm
07:25 AM 2.4°F-16.4°C -0.8°F-18.2°C 86% Calm Calm 5.0 mph8.0 kmh 30.54 in1034.2 mb 0.00 in0.0 mm 0.00 in/hr0.0 mm/hr 0.00 in0.0 mm
07:20 AM 2.4°F-16.4°C -0.8°F-18.2°C 86% Calm Calm 5.0 mph8.0 kmh 30.54 in1034.2 mb 0.00 in0.0 mm 0.00 in/hr0.0 mm/hr 0.00 in0.0 mm
07:15 AM 2.4°F-16.4°C -0.8°F-18.2°C 86% Calm Calm 5.0 mph8.0 kmh 30.54 in1034.2 mb 0.00 in0.0 mm 0.00 in/hr0.0 mm/hr 0.00 in0.0 mm
07:10 AM 2.5°F-16.4°C -0.7°F-18.2°C 86% Calm Calm 5.0 mph8.0 kmh 30.54 in1034.2 mb 0.00 in0.0 mm 0.00 in/hr0.0 mm/hr 0.00 in0.0 mm
07:05 AM 2.6°F-16.3°C -0.6°F-18.1°C 86% Calm Calm 5.0 mph8.0 kmh 30.54 in1034.2 mb 0.00 in0.0 mm 0.00 in/hr0.0 mm/hr 0.00 in0.0 mm
06:59 AM 17.4°F-8.1°C 12.6°F-10.8°C 81% 2.0 mph WNW3.2 kmh WNW 5.0 mph8.0 kmh 30.50 in1032.8 mb 0.00 in0.0 mm 0.00 in/hr0.0 mm/hr 0.00 in0.0 mm
06:54 AM 17.4°F-8.1°C 12.6°F-10.8°C 81% 2.0 mph WNW3.2 kmh WNW 5.0 mph8.0 kmh 30.50 in1032.8 mb 0.00 in0.0 mm 0.00 in/hr0.0 mm/hr 0.00 in0.0 mm
06:49 AM 17.4°F-8.1°C 12.6°F-10.8°C 81% 2.0 mph WNW3.2 kmh WNW 5.0 mph8.0 kmh 30.50 in1032.8 mb 0.00 in0.0 mm 0.00 in/hr0.0 mm/hr 0.00 in0.0 mm
06:44 AM 17.4°F-8.1°C 12.6°F-10.8°C 81% 2.0 mph WNW3.2 kmh WNW 5.0 mph8.0 kmh 30.50 in1032.8 mb 0.00 in0.0 mm 0.00 in/hr0.0 mm/hr 0.00 in0.0 mm
06:39 AM 17.4°F-8.1°C 12.6°F-10.8°C 81% 2.0 mph WNW3.2 kmh WNW 5.0 mph8.0 kmh 30.50 in1032.8 mb 0.00 in0.0 mm 0.00 in/hr0.0 mm/hr 0.00 in0.0 mm
06:34 AM 17.4°F-8.1°C 12.6°F-10.8°C 81% 2.0 mph WNW3.2 kmh WNW 5.0 mph8.0 kmh 30.50 in1032.8 mb 0.00 in0.0 mm 0.00 in/hr0.0 mm/hr 0.00 in0.0 mm
06:29 AM 17.4°F-8.1°C 12.6°F-10.8°C 81% 2.0 mph WNW3.2 kmh WNW 5.0 mph8.0 kmh 30.50 in1032.8 mb 0.00 in0.0 mm 0.00 in/hr0.0 mm/hr 0.00 in0.0 mm
06:24 AM 17.4°F-8.1°C 12.6°F-10.8°C 81% 2.0 mph WNW3.2 kmh WNW 5.0 mph8.0 kmh 30.50 in1032.8 mb 0.00 in0.0 mm 0.00 in/hr0.0 mm/hr 0.00 in0.0 mm
06:19 AM 17.4°F-8.1°C 12.6°F-10.8°C 81% 2.0 mph WNW3.2 kmh WNW 5.0 mph8.0 kmh 30.50 in1032.8 mb 0.00 in0.0 mm 0.00 in/hr0.0 mm/hr 0.00 in0.0 mm
06:14 AM 17.4°F-8.1°C 12.6°F-10.8°C 81% 2.0 mph WNW3.2 kmh WNW 5.0 mph8.0 kmh 30.50 in1032.8 mb 0.00 in0.0 mm 0.00 in/hr0.0 mm/hr 0.00 in0.0 mm
06:09 AM 17.4°F-8.1°C 12.6°F-10.8°C 81% 2.0 mph WNW3.2 kmh WNW 5.0 mph8.0 kmh 30.50 in1032.8 mb 0.00 in0.0 mm 0.00 in/hr0.0 mm/hr 0.00 in0.0 mm
06:04 AM 17.4°F-8.1°C 12.6°F-10.8°C 81% 2.0 mph WNW3.2 kmh WNW 5.0 mph8.0 kmh 30.50 in1032.8 mb 0.00 in0.0 mm 0.00 in/hr0.0 mm/hr 0.00 in0.0 mm
05:59 AM 17.4°F-8.1°C 12.6°F-10.8°C 81% 2.0 mph WNW3.2 kmh WNW 5.0 mph8.0 kmh 30.50 in1032.8 mb 0.00 in0.0 mm 0.00 in/hr0.0 mm/hr 0.00 in0.0 mm
05:54 AM 17.4°F-8.1°C 12.6°F-10.8°C 81% 2.0 mph WNW3.2 kmh WNW 5.0 mph8.0 kmh 30.50 in1032.8 mb 0.00 in0.0 mm 0.00 in/hr0.0 mm/hr 0.00 in0.0 mm
05:49 AM 17.4°F-8.1°C 12.6°F-10.8°C 81% 2.0 mph WNW3.2 kmh WNW 5.0 mph8.0 kmh 30.50 in1032.8 mb 0.00 in0.0 mm 0.00 in/hr0.0 mm/hr 0.00 in0.0 mm
05:44 AM 17.4°F-8.1°C 12.6°F-10.8°C 81% 2.0 mph WNW3.2 kmh WNW 5.0 mph8.0 kmh 30.50 in1032.8 mb 0.00 in0.0 mm 0.00 in/hr0.0 mm/hr 0.00 in0.0 mm
05:39 AM 17.4°F-8.1°C 12.6°F-10.8°C 81% 2.0 mph WNW3.2 kmh WNW 5.0 mph8.0 kmh 30.50 in1032.8 mb 0.00 in0.0 mm 0.00 in/hr0.0 mm/hr 0.00 in0.0 mm
05:34 AM 17.4°F-8.1°C 12.6°F-10.8°C 81% 2.0 mph WNW3.2 kmh WNW 5.0 mph8.0 kmh 30.50 in1032.8 mb 0.00 in0.0 mm 0.00 in/hr0.0 mm/hr 0.00 in0.0 mm
05:29 AM 17.4°F-8.1°C 12.6°F-10.8°C 81% 2.0 mph WNW3.2 kmh WNW 5.0 mph8.0 kmh 30.50 in1032.8 mb 0.00 in0.0 mm 0.00 in/hr0.0 mm/hr 0.00 in0.0 mm
05:24 AM 17.4°F-8.1°C 12.6°F-10.8°C 81% 2.0 mph WNW3.2 kmh WNW 5.0 mph8.0 kmh 30.50 in1032.8 mb 0.00 in0.0 mm 0.00 in/hr0.0 mm/hr 0.00 in0.0 mm
05:19 AM 17.4°F-8.1°C 12.6°F-10.8°C 81% 2.0 mph WNW3.2 kmh WNW 5.0 mph8.0 kmh 30.50 in1032.8 mb 0.00 in0.0 mm 0.00 in/hr0.0 mm/hr 0.00 in0.0 mm
05:14 AM 17.4°F-8.1°C 12.6°F-10.8°C 81% 2.0 mph WNW3.2 kmh WNW 5.0 mph8.0 kmh 30.50 in1032.8 mb 0.00 in0.0 mm 0.00 in/hr0.0 mm/hr 0.00 in0.0 mm
05:09 AM 17.4°F-8.1°C 12.6°F-10.8°C 81% 2.0 mph WNW3.2 kmh WNW 5.0 mph8.0 kmh 30.50 in1032.8 mb 0.00 in0.0 mm 0.00 in/hr0.0 mm/hr 0.00 in0.0 mm
05:04 AM 17.4°F-8.1°C 12.6°F-10.8°C 81% 2.0 mph WNW3.2 kmh WNW 5.0 mph8.0 kmh 30.50 in1032.8 mb 0.00 in0.0 mm 0.00 in/hr0.0 mm/hr 0.00 in0.0 mm
04:59 AM 17.4°F-8.1°C 12.6°F-10.8°C 81% 2.0 mph WNW3.2 kmh WNW 5.0 mph8.0 kmh 30.50 in1032.8 mb 0.00 in0.0 mm 0.00 in/hr0.0 mm/hr 0.00 in0.0 mm
04:54 AM 17.4°F-8.1°C 12.6°F-10.8°C 81% 2.0 mph WNW3.2 kmh WNW 5.0 mph8.0 kmh 30.50 in1032.8 mb 0.00 in0.0 mm 0.00 in/hr0.0 mm/hr 0.00 in0.0 mm
04:49 AM 17.4°F-8.1°C 12.6°F-10.8°C 81% 2.0 mph WNW3.2 kmh WNW 5.0 mph8.0 kmh 30.50 in1032.8 mb 0.00 in0.0 mm 0.00 in/hr0.0 mm/hr 0.00 in0.0 mm
04:44 AM 17.4°F-8.1°C 12.6°F-10.8°C 81% 2.0 mph WNW3.2 kmh WNW 5.0 mph8.0 kmh 30.50 in1032.8 mb 0.00 in0.0 mm 0.00 in/hr0.0 mm/hr 0.00 in0.0 mm
04:39 AM 17.4°F-8.1°C 12.6°F-10.8°C 81% 2.0 mph WNW3.2 kmh WNW 5.0 mph8.0 kmh 30.50 in1032.8 mb 0.00 in0.0 mm 0.00 in/hr0.0 mm/hr 0.00 in0.0 mm
04:34 AM 17.4°F-8.1°C 12.6°F-10.8°C 81% 2.0 mph WNW3.2 kmh WNW 5.0 mph8.0 kmh 30.50 in1032.8 mb 0.00 in0.0 mm 0.00 in/hr0.0 mm/hr 0.00 in0.0 mm
04:29 AM 17.4°F-8.1°C 12.6°F-10.8°C 81% 2.0 mph WNW3.2 kmh WNW 5.0 mph8.0 kmh 30.50 in1032.8 mb 0.00 in0.0 mm 0.00 in/hr0.0 mm/hr 0.00 in0.0 mm
04:24 AM 17.4°F-8.1°C 12.6°F-10.8°C 81% 2.0 mph WNW3.2 kmh WNW 5.0 mph8.0 kmh 30.50 in1032.8 mb 0.00 in0.0 mm 0.00 in/hr0.0 mm/hr 0.00 in0.0 mm
04:19 AM 17.4°F-8.1°C 12.6°F-10.8°C 81% 2.0 mph WNW3.2 kmh WNW 5.0 mph8.0 kmh 30.50 in1032.8 mb 0.00 in0.0 mm 0.00 in/hr0.0 mm/hr 0.00 in0.0 mm
04:14 AM 17.4°F-8.1°C 12.6°F-10.8°C 81% 2.0 mph WNW3.2 kmh WNW 5.0 mph8.0 kmh 30.50 in1032.8 mb 0.00 in0.0 mm 0.00 in/hr0.0 mm/hr 0.00 in0.0 mm
04:09 AM 17.4°F-8.1°C 12.6°F-10.8°C 81% 2.0 mph WNW3.2 kmh WNW 5.0 mph8.0 kmh 30.50 in1032.8 mb 0.00 in0.0 mm 0.00 in/hr0.0 mm/hr 0.00 in0.0 mm
04:04 AM 17.4°F-8.1°C 12.6°F-10.8°C 81% 2.0 mph WNW3.2 kmh WNW 5.0 mph8.0 kmh 30.50 in1032.8 mb 0.00 in0.0 mm 0.00 in/hr0.0 mm/hr 0.00 in0.0 mm
03:59 AM 17.4°F-8.1°C 12.6°F-10.8°C 81% 2.0 mph WNW3.2 kmh WNW 5.0 mph8.0 kmh 30.50 in1032.8 mb 0.00 in0.0 mm 0.00 in/hr0.0 mm/hr 0.00 in0.0 mm
03:54 AM 17.4°F-8.1°C 12.6°F-10.8°C 81% 2.0 mph WNW3.2 kmh WNW 5.0 mph8.0 kmh 30.50 in1032.8 mb 0.00 in0.0 mm 0.00 in/hr0.0 mm/hr 0.00 in0.0 mm
03:49 AM 17.4°F-8.1°C 12.6°F-10.8°C 81% 2.0 mph WNW3.2 kmh WNW 5.0 mph8.0 kmh 30.50 in1032.8 mb 0.00 in0.0 mm 0.00 in/hr0.0 mm/hr 0.00 in0.0 mm
03:44 AM 17.4°F-8.1°C 12.6°F-10.8°C 81% 2.0 mph WNW3.2 kmh WNW 5.0 mph8.0 kmh 30.50 in1032.8 mb 0.00 in0.0 mm 0.00 in/hr0.0 mm/hr 0.00 in0.0 mm
03:39 AM 17.4°F-8.1°C 12.6°F-10.8°C 81% 2.0 mph WNW3.2 kmh WNW 5.0 mph8.0 kmh 30.50 in1032.8 mb 0.00 in0.0 mm 0.00 in/hr0.0 mm/hr 0.00 in0.0 mm
03:34 AM 17.4°F-8.1°C 12.6°F-10.8°C 81% 2.0 mph WNW3.2 kmh WNW 5.0 mph8.0 kmh 30.50 in1032.8 mb 0.00 in0.0 mm 0.00 in/hr0.0 mm/hr 0.00 in0.0 mm
03:29 AM 17.4°F-8.1°C 12.6°F-10.8°C 81% 2.0 mph WNW3.2 kmh WNW 5.0 mph8.0 kmh 30.50 in1032.8 mb 0.00 in0.0 mm 0.00 in/hr0.0 mm/hr 0.00 in0.0 mm
03:24 AM 17.4°F-8.1°C 12.6°F-10.8°C 81% 2.0 mph WNW3.2 kmh WNW 5.0 mph8.0 kmh 30.50 in1032.8 mb 0.00 in0.0 mm 0.00 in/hr0.0 mm/hr 0.00 in0.0 mm
03:19 AM 17.4°F-8.1°C 12.6°F-10.8°C 81% 2.0 mph WNW3.2 kmh WNW 5.0 mph8.0 kmh 30.50 in1032.8 mb 0.00 in0.0 mm 0.00 in/hr0.0 mm/hr 0.00 in0.0 mm
03:14 AM 17.4°F-8.1°C 12.6°F-10.8°C 81% 2.0 mph WNW3.2 kmh WNW 5.0 mph8.0 kmh 30.50 in1032.8 mb 0.00 in0.0 mm 0.00 in/hr0.0 mm/hr 0.00 in0.0 mm
03:09 AM 17.4°F-8.1°C 12.6°F-10.8°C 81% 2.0 mph WNW3.2 kmh WNW 5.0 mph8.0 kmh 30.50 in1032.8 mb 0.00 in0.0 mm 0.00 in/hr0.0 mm/hr 0.00 in0.0 mm
03:04 AM 17.4°F-8.1°C 12.6°F-10.8°C 81% 2.0 mph WNW3.2 kmh WNW 5.0 mph8.0 kmh 30.50 in1032.8 mb 0.00 in0.0 mm 0.00 in/hr0.0 mm/hr 0.00 in0.0 mm
02:59 AM 17.4°F-8.1°C 12.6°F-10.8°C 81% 2.0 mph WNW3.2 kmh WNW 5.0 mph8.0 kmh 30.50 in1032.8 mb 0.00 in0.0 mm 0.00 in/hr0.0 mm/hr 0.00 in0.0 mm
02:54 AM 17.4°F-8.1°C 12.6°F-10.8°C 81% 2.0 mph WNW3.2 kmh WNW 5.0 mph8.0 kmh 30.50 in1032.8 mb 0.00 in0.0 mm 0.00 in/hr0.0 mm/hr 0.00 in0.0 mm
02:49 AM 17.4°F-8.1°C 12.6°F-10.8°C 81% 2.0 mph WNW3.2 kmh WNW 5.0 mph8.0 kmh 30.50 in1032.8 mb 0.00 in0.0 mm 0.00 in/hr0.0 mm/hr 0.00 in0.0 mm
02:44 AM 17.4°F-8.1°C 12.6°F-10.8°C 81% 2.0 mph WNW3.2 kmh WNW 5.0 mph8.0 kmh 30.50 in1032.8 mb 0.00 in0.0 mm 0.00 in/hr0.0 mm/hr 0.00 in0.0 mm
02:39 AM 17.4°F-8.1°C 12.6°F-10.8°C 81% 2.0 mph WNW3.2 kmh WNW 5.0 mph8.0 kmh 30.50 in1032.8 mb 0.00 in0.0 mm 0.00 in/hr0.0 mm/hr 0.00 in0.0 mm
02:34 AM 17.4°F-8.1°C 12.6°F-10.8°C 81% 2.0 mph WNW3.2 kmh WNW 5.0 mph8.0 kmh 30.50 in1032.8 mb 0.00 in0.0 mm 0.00 in/hr0.0 mm/hr 0.00 in0.0 mm
02:29 AM 17.4°F-8.1°C 12.6°F-10.8°C 81% 2.0 mph WNW3.2 kmh WNW 5.0 mph8.0 kmh 30.50 in1032.8 mb 0.00 in0.0 mm 0.00 in/hr0.0 mm/hr 0.00 in0.0 mm
02:24 AM 17.4°F-8.1°C 12.6°F-10.8°C 81% 2.0 mph WNW3.2 kmh WNW 5.0 mph8.0 kmh 30.50 in1032.8 mb 0.00 in0.0 mm 0.00 in/hr0.0 mm/hr 0.00 in0.0 mm
02:19 AM 17.4°F-8.1°C 12.6°F-10.8°C 81% 2.0 mph WNW3.2 kmh WNW 5.0 mph8.0 kmh 30.50 in1032.8 mb 0.00 in0.0 mm 0.00 in/hr0.0 mm/hr 0.00 in0.0 mm
02:14 AM 17.4°F-8.1°C 12.6°F-10.8°C 81% 2.0 mph WNW3.2 kmh WNW 5.0 mph8.0 kmh 30.50 in1032.8 mb 0.00 in0.0 mm 0.00 in/hr0.0 mm/hr 0.00 in0.0 mm
02:09 AM 17.4°F-8.1°C 12.6°F-10.8°C 81% 2.0 mph WNW3.2 kmh WNW 5.0 mph8.0 kmh 30.50 in1032.8 mb 0.00 in0.0 mm 0.00 in/hr0.0 mm/hr 0.00 in0.0 mm
02:04 AM 17.4°F-8.1°C 12.6°F-10.8°C 81% 2.0 mph WNW3.2 kmh WNW 5.0 mph8.0 kmh 30.50 in1032.8 mb 0.00 in0.0 mm 0.00 in/hr0.0 mm/hr 0.00 in0.0 mm
01:59 AM 17.4°F-8.1°C 12.6°F-10.8°C 81% 2.0 mph WNW3.2 kmh WNW 5.0 mph8.0 kmh 30.50 in1032.8 mb 0.00 in0.0 mm 0.00 in/hr0.0 mm/hr 0.00 in0.0 mm
01:54 AM 17.4°F-8.1°C 12.6°F-10.8°C 81% 2.0 mph WNW3.2 kmh WNW 5.0 mph8.0 kmh 30.50 in1032.8 mb 0.00 in0.0 mm 0.00 in/hr0.0 mm/hr 0.00 in0.0 mm
01:49 AM 17.4°F-8.1°C 12.6°F-10.8°C 81% 2.0 mph WNW3.2 kmh WNW 5.0 mph8.0 kmh 30.50 in1032.8 mb 0.00 in0.0 mm 0.00 in/hr0.0 mm/hr 0.00 in0.0 mm
01:44 AM 17.4°F-8.1°C 12.6°F-10.8°C 81% 2.0 mph WNW3.2 kmh WNW 5.0 mph8.0 kmh 30.50 in1032.8 mb 0.00 in0.0 mm 0.00 in/hr0.0 mm/hr 0.00 in0.0 mm
01:39 AM 17.4°F-8.1°C 12.6°F-10.8°C 81% 2.0 mph WNW3.2 kmh WNW 5.0 mph8.0 kmh 30.50 in1032.8 mb 0.00 in0.0 mm 0.00 in/hr0.0 mm/hr 0.00 in0.0 mm
01:34 AM 17.4°F-8.1°C 12.6°F-10.8°C 81% 2.0 mph WNW3.2 kmh WNW 5.0 mph8.0 kmh 30.50 in1032.8 mb 0.00 in0.0 mm 0.00 in/hr0.0 mm/hr 0.00 in0.0 mm
01:29 AM 17.4°F-8.1°C 12.6°F-10.8°C 81% 2.0 mph WNW3.2 kmh WNW 5.0 mph8.0 kmh 30.50 in1032.8 mb 0.00 in0.0 mm 0.00 in/hr0.0 mm/hr 0.00 in0.0 mm
01:24 AM 17.4°F-8.1°C 12.6°F-10.8°C 81% 2.0 mph WNW3.2 kmh WNW 5.0 mph8.0 kmh 30.50 in1032.8 mb 0.00 in0.0 mm 0.00 in/hr0.0 mm/hr 0.00 in0.0 mm
01:19 AM 17.4°F-8.1°C 12.6°F-10.8°C 81% 2.0 mph WNW3.2 kmh WNW 5.0 mph8.0 kmh 30.50 in1032.8 mb 0.00 in0.0 mm 0.00 in/hr0.0 mm/hr 0.00 in0.0 mm
01:14 AM 17.4°F-8.1°C 12.6°F-10.8°C 81% 2.0 mph WNW3.2 kmh WNW 5.0 mph8.0 kmh 30.50 in1032.8 mb 0.00 in0.0 mm 0.00 in/hr0.0 mm/hr 0.00 in0.0 mm
01:09 AM 17.4°F-8.1°C 12.6°F-10.8°C 81% 2.0 mph WNW3.2 kmh WNW 5.0 mph8.0 kmh 30.50 in1032.8 mb 0.00 in0.0 mm 0.00 in/hr0.0 mm/hr 0.00 in0.0 mm
01:04 AM 17.4°F-8.1°C 12.6°F-10.8°C 81% 2.0 mph WNW3.2 kmh WNW 5.0 mph8.0 kmh 30.50 in1032.8 mb 0.00 in0.0 mm 0.00 in/hr0.0 mm/hr 0.00 in0.0 mm
12:59 AM 17.4°F-8.1°C 12.6°F-10.8°C 81% 2.0 mph WNW3.2 kmh WNW 5.0 mph8.0 kmh 30.50 in1032.8 mb 0.00 in0.0 mm 0.00 in/hr0.0 mm/hr 0.00 in0.0 mm
12:54 AM 17.4°F-8.1°C 12.6°F-10.8°C 81% 2.0 mph WNW3.2 kmh WNW 5.0 mph8.0 kmh 30.50 in1032.8 mb 0.00 in0.0 mm 0.00 in/hr0.0 mm/hr 0.00 in0.0 mm
12:49 AM 17.4°F-8.1°C 12.6°F-10.8°C 81% 2.0 mph WNW3.2 kmh WNW 5.0 mph8.0 kmh 30.50 in1032.8 mb 0.00 in0.0 mm 0.00 in/hr0.0 mm/hr 0.00 in0.0 mm
12:44 AM 17.4°F-8.1°C 12.6°F-10.8°C 81% 2.0 mph WNW3.2 kmh WNW 5.0 mph8.0 kmh 30.50 in1032.8 mb 0.00 in0.0 mm 0.00 in/hr0.0 mm/hr 0.00 in0.0 mm
12:39 AM 17.4°F-8.1°C 12.6°F-10.8°C 81% 2.0 mph WNW3.2 kmh WNW 5.0 mph8.0 kmh 30.50 in1032.8 mb 0.00 in0.0 mm 0.00 in/hr0.0 mm/hr 0.00 in0.0 mm
12:34 AM 17.4°F-8.1°C 12.6°F-10.8°C 81% 2.0 mph WNW3.2 kmh WNW 5.0 mph8.0 kmh 30.50 in1032.8 mb 0.00 in0.0 mm 0.00 in/hr0.0 mm/hr 0.00 in0.0 mm
12:29 AM 17.4°F-8.1°C 12.6°F-10.8°C 81% 2.0 mph WNW3.2 kmh WNW 5.0 mph8.0 kmh 30.50 in1032.8 mb 0.00 in0.0 mm 0.00 in/hr0.0 mm/hr 0.00 in0.0 mm
12:24 AM 17.4°F-8.1°C 12.6°F-10.8°C 81% 2.0 mph WNW3.2 kmh WNW 5.0 mph8.0 kmh 30.50 in1032.8 mb 0.00 in0.0 mm 0.00 in/hr0.0 mm/hr 0.00 in0.0 mm
12:19 AM 17.4°F-8.1°C 12.6°F-10.8°C 81% 2.0 mph WNW3.2 kmh WNW 5.0 mph8.0 kmh 30.50 in1032.8 mb 0.00 in0.0 mm 0.00 in/hr0.0 mm/hr 0.00 in0.0 mm
12:14 AM 17.4°F-8.1°C 12.6°F-10.8°C 81% 2.0 mph WNW3.2 kmh WNW 5.0 mph8.0 kmh 30.50 in1032.8 mb 0.00 in0.0 mm 0.00 in/hr0.0 mm/hr 0.00 in0.0 mm